sensor_id;sensor_type;location;lat;lon;timestamp;temperature;humidity
3053;DHT22;1536;51.098;6.414;2023-04-03T00:02:02;6.10;99.90
3053;DHT22;1536;51.098;6.414;2023-04-03T00:04:29;6.00;99.90
3053;DHT22;1536;51.098;6.414;2023-04-03T00:06:55;6.00;99.90
3053;DHT22;1536;51.098;6.414;2023-04-03T00:09:23;5.90;99.90
3053;DHT22;1536;51.098;6.414;2023-04-03T00:11:50;5.80;99.90
3053;DHT22;1536;51.098;6.414;2023-04-03T00:14:17;5.70;99.90
3053;DHT22;1536;51.098;6.414;2023-04-03T00:16:44;5.60;99.90
3053;DHT22;1536;51.098;6.414;2023-04-03T00:19:10;5.60;99.90
3053;DHT22;1536;51.098;6.414;2023-04-03T00:21:38;5.50;99.90
3053;DHT22;1536;51.098;6.414;2023-04-03T00:24:06;5.50;99.90
3053;DHT22;1536;51.098;6.414;2023-04-03T00:26:34;5.40;99.90
3053;DHT22;1536;51.098;6.414;2023-04-03T00:29:01;5.30;99.90
3053;DHT22;1536;51.098;6.414;2023-04-03T00:31:27;5.30;99.90
3053;DHT22;1536;51.098;6.414;2023-04-03T00:33:54;5.30;99.90
3053;DHT22;1536;51.098;6.414;2023-04-03T00:36:21;5.20;99.90
3053;DHT22;1536;51.098;6.414;2023-04-03T00:38:48;5.20;99.90
3053;DHT22;1536;51.098;6.414;2023-04-03T00:41:14;5.20;99.90
3053;DHT22;1536;51.098;6.414;2023-04-03T00:43:42;5.20;99.90
3053;DHT22;1536;51.098;6.414;2023-04-03T00:46:10;5.20;99.90
3053;DHT22;1536;51.098;6.414;2023-04-03T00:48:39;5.20;99.90
3053;DHT22;1536;51.098;6.414;2023-04-03T00:51:10;5.20;99.90
3053;DHT22;1536;51.098;6.414;2023-04-03T00:53:40;5.20;99.90
3053;DHT22;1536;51.098;6.414;2023-04-03T00:56:10;5.10;99.90
3053;DHT22;1536;51.098;6.414;2023-04-03T00:58:41;5.10;99.90
3053;DHT22;1536;51.098;6.414;2023-04-03T01:01:13;5.10;99.90
3053;DHT22;1536;51.098;6.414;2023-04-03T01:03:41;5.10;99.90
3053;DHT22;1536;51.098;6.414;2023-04-03T01:06:08;5.10;99.90
3053;DHT22;1536;51.098;6.414;2023-04-03T01:08:37;5.10;99.90
3053;DHT22;1536;51.098;6.414;2023-04-03T01:11:04;5.00;99.90
3053;DHT22;1536;51.098;6.414;2023-04-03T01:13:33;5.00;99.90
3053;DHT22;1536;51.098;6.414;2023-04-03T01:16:03;4.90;99.90
3053;DHT22;1536;51.098;6.414;2023-04-03T01:18:32;4.90;99.90
3053;DHT22;1536;51.098;6.414;2023-04-03T01:21:23;4.90;99.90
3053;DHT22;1536;51.098;6.414;2023-04-03T01:24:00;4.80;99.90
3053;DHT22;1536;51.098;6.414;2023-04-03T01:26:31;4.80;99.90
3053;DHT22;1536;51.098;6.414;2023-04-03T01:28:59;4.70;99.90
3053;DHT22;1536;51.098;6.414;2023-04-03T01:31:29;4.70;99.90
3053;DHT22;1536;51.098;6.414;2023-04-03T01:33:59;4.60;99.90
3053;DHT22;1536;51.098;6.414;2023-04-03T01:36:28;4.60;99.90
3053;DHT22;1536;51.098;6.414;2023-04-03T01:38:57;4.60;99.90
3053;DHT22;1536;51.098;6.414;2023-04-03T01:41:24;4.50;99.90
3053;DHT22;1536;51.098;6.414;2023-04-03T01:43:51;4.50;99.90
3053;DHT22;1536;51.098;6.414;2023-04-03T01:46:19;4.50;99.90
3053;DHT22;1536;51.098;6.414;2023-04-03T01:48:46;4.40;99.90
3053;DHT22;1536;51.098;6.414;2023-04-03T01:51:14;4.50;99.90
3053;DHT22;1536;51.098;6.414;2023-04-03T01:53:41;4.50;99.90
3053;DHT22;1536;51.098;6.414;2023-04-03T01:56:08;4.50;99.90
3053;DHT22;1536;51.098;6.414;2023-04-03T01:58:35;4.50;99.90
3053;DHT22;1536;51.098;6.414;2023-04-03T02:01:02;4.50;99.90
3053;DHT22;1536;51.098;6.414;2023-04-03T02:03:29;4.50;99.90
3053;DHT22;1536;51.098;6.414;2023-04-03T02:05:56;4.50;99.90
3053;DHT22;1536;51.098;6.414;2023-04-03T02:08:24;4.40;99.90
3053;DHT22;1536;51.098;6.414;2023-04-03T02:10:51;4.40;99.90
3053;DHT22;1536;51.098;6.414;2023-04-03T02:13:18;4.50;99.90
3053;DHT22;1536;51.098;6.414;2023-04-03T02:15:46;4.50;99.90
3053;DHT22;1536;51.098;6.414;2023-04-03T02:18:15;4.50;99.90
3053;DHT22;1536;51.098;6.414;2023-04-03T02:20:42;4.50;99.90
3053;DHT22;1536;51.098;6.414;2023-04-03T02:23:09;4.50;99.90
3053;DHT22;1536;51.098;6.414;2023-04-03T02:25:37;4.40;99.90
3053;DHT22;1536;51.098;6.414;2023-04-03T02:28:04;4.40;99.90
3053;DHT22;1536;51.098;6.414;2023-04-03T02:30:31;4.40;99.90
3053;DHT22;1536;51.098;6.414;2023-04-03T02:32:58;4.40;99.90
3053;DHT22;1536;51.098;6.414;2023-04-03T02:35:25;4.40;99.90
3053;DHT22;1536;51.098;6.414;2023-04-03T02:37:52;4.50;99.90
3053;DHT22;1536;51.098;6.414;2023-04-03T02:40:19;4.50;99.90
3053;DHT22;1536;51.098;6.414;2023-04-03T02:42:47;4.50;99.90
3053;DHT22;1536;51.098;6.414;2023-04-03T02:45:14;4.50;99.90
3053;DHT22;1536;51.098;6.414;2023-04-03T02:47:40;4.60;99.90
3053;DHT22;1536;51.098;6.414;2023-04-03T02:50:08;4.60;99.90
3053;DHT22;1536;51.098;6.414;2023-04-03T02:52:35;4.60;99.90
3053;DHT22;1536;51.098;6.414;2023-04-03T02:55:02;4.70;99.90
3053;DHT22;1536;51.098;6.414;2023-04-03T02:57:29;4.70;99.90
3053;DHT22;1536;51.098;6.414;2023-04-03T02:59:57;4.70;99.90
3053;DHT22;1536;51.098;6.414;2023-04-03T03:02:23;4.70;99.90
3053;DHT22;1536;51.098;6.414;2023-04-03T03:04:50;4.70;99.90
3053;DHT22;1536;51.098;6.414;2023-04-03T03:07:17;4.70;99.90
3053;DHT22;1536;51.098;6.414;2023-04-03T03:09:44;4.80;99.90
3053;DHT22;1536;51.098;6.414;2023-04-03T03:12:11;4.80;99.90
3053;DHT22;1536;51.098;6.414;2023-04-03T03:14:37;4.80;99.90
3053;DHT22;1536;51.098;6.414;2023-04-03T03:17:05;4.90;99.90
3053;DHT22;1536;51.098;6.414;2023-04-03T03:19:32;4.90;99.90
3053;DHT22;1536;51.098;6.414;2023-04-03T03:21:59;4.90;99.90
3053;DHT22;1536;51.098;6.414;2023-04-03T03:24:25;5.00;99.90
3053;DHT22;1536;51.098;6.414;2023-04-03T03:26:52;5.00;99.90
3053;DHT22;1536;51.098;6.414;2023-04-03T03:29:19;5.00;99.90
3053;DHT22;1536;51.098;6.414;2023-04-03T03:31:46;5.10;99.90
3053;DHT22;1536;51.098;6.414;2023-04-03T03:34:14;5.10;99.90
3053;DHT22;1536;51.098;6.414;2023-04-03T03:36:41;5.20;99.90
3053;DHT22;1536;51.098;6.414;2023-04-03T03:39:08;5.20;99.90
3053;DHT22;1536;51.098;6.414;2023-04-03T03:41:34;5.30;99.90
3053;DHT22;1536;51.098;6.414;2023-04-03T03:44:03;5.30;99.90
3053;DHT22;1536;51.098;6.414;2023-04-03T03:46:29;5.30;99.90
3053;DHT22;1536;51.098;6.414;2023-04-03T03:48:56;5.30;99.90
3053;DHT22;1536;51.098;6.414;2023-04-03T03:51:24;5.30;99.90
3053;DHT22;1536;51.098;6.414;2023-04-03T03:53:51;5.40;99.90
3053;DHT22;1536;51.098;6.414;2023-04-03T03:56:18;5.40;99.90
3053;DHT22;1536;51.098;6.414;2023-04-03T03:58:45;5.40;99.90
3053;DHT22;1536;51.098;6.414;2023-04-03T04:01:12;5.40;99.90
3053;DHT22;1536;51.098;6.414;2023-04-03T04:03:39;5.40;99.90
3053;DHT22;1536;51.098;6.414;2023-04-03T04:06:06;5.40;99.90
3053;DHT22;1536;51.098;6.414;2023-04-03T04:08:34;5.40;99.90
3053;DHT22;1536;51.098;6.414;2023-04-03T04:11:00;5.40;99.90
3053;DHT22;1536;51.098;6.414;2023-04-03T04:13:27;5.40;99.90
3053;DHT22;1536;51.098;6.414;2023-04-03T04:15:54;5.40;99.90
3053;DHT22;1536;51.098;6.414;2023-04-03T04:18:21;5.40;99.90
3053;DHT22;1536;51.098;6.414;2023-04-03T04:20:48;5.40;99.90
3053;DHT22;1536;51.098;6.414;2023-04-03T04:23:15;5.40;99.90
3053;DHT22;1536;51.098;6.414;2023-04-03T04:25:45;5.40;99.90
3053;DHT22;1536;51.098;6.414;2023-04-03T04:28:12;5.40;99.90
3053;DHT22;1536;51.098;6.414;2023-04-03T04:30:39;5.30;99.90
3053;DHT22;1536;51.098;6.414;2023-04-03T04:33:06;5.30;99.90
3053;DHT22;1536;51.098;6.414;2023-04-03T04:35:32;5.20;99.90
3053;DHT22;1536;51.098;6.414;2023-04-03T04:37:59;5.20;99.90
3053;DHT22;1536;51.098;6.414;2023-04-03T04:40:27;5.20;99.90
3053;DHT22;1536;51.098;6.414;2023-04-03T04:42:55;5.20;99.90
3053;DHT22;1536;51.098;6.414;2023-04-03T04:45:21;5.10;99.90
3053;DHT22;1536;51.098;6.414;2023-04-03T04:47:48;5.10;99.90
3053;DHT22;1536;51.098;6.414;2023-04-03T04:50:17;5.10;99.90
3053;DHT22;1536;51.098;6.414;2023-04-03T04:52:44;5.00;99.90
3053;DHT22;1536;51.098;6.414;2023-04-03T04:55:10;5.00;99.90
3053;DHT22;1536;51.098;6.414;2023-04-03T04:57:37;4.90;99.90
3053;DHT22;1536;51.098;6.414;2023-04-03T05:00:06;4.90;99.90
3053;DHT22;1536;51.098;6.414;2023-04-03T05:02:34;4.90;99.90
3053;DHT22;1536;51.098;6.414;2023-04-03T05:05:00;4.80;99.90
3053;DHT22;1536;51.098;6.414;2023-04-03T05:07:27;4.80;99.90
3053;DHT22;1536;51.098;6.414;2023-04-03T05:09:54;4.80;99.90
3053;DHT22;1536;51.098;6.414;2023-04-03T05:12:20;4.70;99.90
3053;DHT22;1536;51.098;6.414;2023-04-03T05:14:47;4.70;99.90
3053;DHT22;1536;51.098;6.414;2023-04-03T05:17:15;4.70;99.90
3053;DHT22;1536;51.098;6.414;2023-04-03T05:19:42;4.70;99.90
3053;DHT22;1536;51.098;6.414;2023-04-03T05:22:09;4.70;99.90
3053;DHT22;1536;51.098;6.414;2023-04-03T05:24:35;4.80;99.90
3053;DHT22;1536;51.098;6.414;2023-04-03T05:27:03;4.80;99.90
3053;DHT22;1536;51.098;6.414;2023-04-03T05:29:29;4.80;99.90
3053;DHT22;1536;51.098;6.414;2023-04-03T05:31:56;4.80;99.90
3053;DHT22;1536;51.098;6.414;2023-04-03T05:34:24;4.90;99.90
3053;DHT22;1536;51.098;6.414;2023-04-03T05:36:51;4.80;99.90
3053;DHT22;1536;51.098;6.414;2023-04-03T05:39:18;4.90;99.90
3053;DHT22;1536;51.098;6.414;2023-04-03T05:41:45;4.90;99.90
3053;DHT22;1536;51.098;6.414;2023-04-03T05:44:11;4.90;99.90
3053;DHT22;1536;51.098;6.414;2023-04-03T05:46:38;4.90;99.90
3053;DHT22;1536;51.098;6.414;2023-04-03T05:49:05;4.90;99.90
3053;DHT22;1536;51.098;6.414;2023-04-03T05:51:35;4.90;99.90
3053;DHT22;1536;51.098;6.414;2023-04-03T05:54:08;5.00;99.90
3053;DHT22;1536;51.098;6.414;2023-04-03T05:56:36;5.00;99.90
3053;DHT22;1536;51.098;6.414;2023-04-03T05:59:02;5.10;99.90
3053;DHT22;1536;51.098;6.414;2023-04-03T06:01:29;5.10;99.90
3053;DHT22;1536;51.098;6.414;2023-04-03T06:03:56;5.10;99.90
3053;DHT22;1536;51.098;6.414;2023-04-03T06:06:23;5.10;99.90
3053;DHT22;1536;51.098;6.414;2023-04-03T06:08:52;5.10;99.90
3053;DHT22;1536;51.098;6.414;2023-04-03T06:11:18;5.10;99.90
3053;DHT22;1536;51.098;6.414;2023-04-03T06:13:47;5.20;99.90
3053;DHT22;1536;51.098;6.414;2023-04-03T06:16:15;5.20;99.90
3053;DHT22;1536;51.098;6.414;2023-04-03T06:18:42;5.20;99.90
3053;DHT22;1536;51.098;6.414;2023-04-03T06:21:09;5.20;99.90
3053;DHT22;1536;51.098;6.414;2023-04-03T06:23:36;5.10;99.90
3053;DHT22;1536;51.098;6.414;2023-04-03T06:26:04;5.10;99.90
3053;DHT22;1536;51.098;6.414;2023-04-03T06:28:31;5.10;99.90
3053;DHT22;1536;51.098;6.414;2023-04-03T06:30:57;5.20;99.90
3053;DHT22;1536;51.098;6.414;2023-04-03T06:33:24;5.20;99.90
3053;DHT22;1536;51.098;6.414;2023-04-03T06:35:56;5.30;99.90
3053;DHT22;1536;51.098;6.414;2023-04-03T06:38:23;5.40;99.90
3053;DHT22;1536;51.098;6.414;2023-04-03T06:40:50;5.40;99.90
3053;DHT22;1536;51.098;6.414;2023-04-03T06:43:19;5.50;99.90
3053;DHT22;1536;51.098;6.414;2023-04-03T06:45:46;5.60;99.90
3053;DHT22;1536;51.098;6.414;2023-04-03T06:48:13;5.60;99.90
3053;DHT22;1536;51.098;6.414;2023-04-03T06:50:39;5.70;99.90
3053;DHT22;1536;51.098;6.414;2023-04-03T06:53:06;5.70;99.90
3053;DHT22;1536;51.098;6.414;2023-04-03T06:55:33;5.70;99.90
3053;DHT22;1536;51.098;6.414;2023-04-03T06:58:01;5.70;99.90
3053;DHT22;1536;51.098;6.414;2023-04-03T07:00:30;5.80;99.90
3053;DHT22;1536;51.098;6.414;2023-04-03T07:02:57;5.80;99.90
3053;DHT22;1536;51.098;6.414;2023-04-03T07:05:24;5.80;99.90
3053;DHT22;1536;51.098;6.414;2023-04-03T07:07:51;5.80;99.90
3053;DHT22;1536;51.098;6.414;2023-04-03T07:10:18;5.90;99.90
3053;DHT22;1536;51.098;6.414;2023-04-03T07:12:45;5.90;99.90
3053;DHT22;1536;51.098;6.414;2023-04-03T07:15:12;5.90;99.90
3053;DHT22;1536;51.098;6.414;2023-04-03T07:17:41;6.00;99.90
3053;DHT22;1536;51.098;6.414;2023-04-03T07:20:08;6.10;99.90
3053;DHT22;1536;51.098;6.414;2023-04-03T07:22:36;6.10;99.90
3053;DHT22;1536;51.098;6.414;2023-04-03T07:25:03;6.20;99.90
3053;DHT22;1536;51.098;6.414;2023-04-03T07:27:32;6.20;99.90
3053;DHT22;1536;51.098;6.414;2023-04-03T07:29:59;6.30;99.90
3053;DHT22;1536;51.098;6.414;2023-04-03T07:32:26;6.30;99.90
3053;DHT22;1536;51.098;6.414;2023-04-03T07:34:54;6.30;99.90
3053;DHT22;1536;51.098;6.414;2023-04-03T07:37:21;6.40;99.90
3053;DHT22;1536;51.098;6.414;2023-04-03T07:39:47;6.40;99.90
3053;DHT22;1536;51.098;6.414;2023-04-03T07:42:14;6.50;99.90
3053;DHT22;1536;51.098;6.414;2023-04-03T07:44:42;6.60;99.90
3053;DHT22;1536;51.098;6.414;2023-04-03T07:47:08;6.60;99.90
3053;DHT22;1536;51.098;6.414;2023-04-03T07:49:35;6.70;99.90
3053;DHT22;1536;51.098;6.414;2023-04-03T07:52:07;6.80;99.90
3053;DHT22;1536;51.098;6.414;2023-04-03T07:54:34;6.80;99.90
3053;DHT22;1536;51.098;6.414;2023-04-03T07:57:01;6.80;99.90
3053;DHT22;1536;51.098;6.414;2023-04-03T07:59:28;6.90;99.90
3053;DHT22;1536;51.098;6.414;2023-04-03T08:01:55;6.90;99.90
3053;DHT22;1536;51.098;6.414;2023-04-03T08:04:22;6.90;99.90
3053;DHT22;1536;51.098;6.414;2023-04-03T08:06:49;6.90;99.90
3053;DHT22;1536;51.098;6.414;2023-04-03T08:09:18;7.00;99.90
3053;DHT22;1536;51.098;6.414;2023-04-03T08:11:45;7.00;99.90
3053;DHT22;1536;51.098;6.414;2023-04-03T08:14:12;7.00;99.90
3053;DHT22;1536;51.098;6.414;2023-04-03T08:16:42;7.10;99.90
3053;DHT22;1536;51.098;6.414;2023-04-03T08:19:09;7.10;99.90
3053;DHT22;1536;51.098;6.414;2023-04-03T08:21:36;7.20;99.90
3053;DHT22;1536;51.098;6.414;2023-04-03T08:24:03;7.20;99.90
3053;DHT22;1536;51.098;6.414;2023-04-03T08:26:32;7.30;99.90
3053;DHT22;1536;51.098;6.414;2023-04-03T08:28:59;7.30;99.90
3053;DHT22;1536;51.098;6.414;2023-04-03T08:31:26;7.40;99.90
3053;DHT22;1536;51.098;6.414;2023-04-03T08:33:53;7.40;99.90
3053;DHT22;1536;51.098;6.414;2023-04-03T08:36:21;7.40;99.90
3053;DHT22;1536;51.098;6.414;2023-04-03T08:38:49;7.50;99.90
3053;DHT22;1536;51.098;6.414;2023-04-03T08:41:20;7.50;99.90
3053;DHT22;1536;51.098;6.414;2023-04-03T08:44:02;7.50;99.90
3053;DHT22;1536;51.098;6.414;2023-04-03T08:46:43;7.60;99.90
3053;DHT22;1536;51.098;6.414;2023-04-03T08:49:20;7.60;99.90
3053;DHT22;1536;51.098;6.414;2023-04-03T08:51:49;7.60;99.90
3053;DHT22;1536;51.098;6.414;2023-04-03T08:54:23;7.70;99.90
3053;DHT22;1536;51.098;6.414;2023-04-03T08:56:51;7.70;99.90
3053;DHT22;1536;51.098;6.414;2023-04-03T08:59:26;7.80;99.90
3053;DHT22;1536;51.098;6.414;2023-04-03T09:01:54;7.90;99.90
3053;DHT22;1536;51.098;6.414;2023-04-03T09:04:21;8.00;99.90
3053;DHT22;1536;51.098;6.414;2023-04-03T09:06:52;8.00;99.90
3053;DHT22;1536;51.098;6.414;2023-04-03T09:09:31;8.10;99.90
3053;DHT22;1536;51.098;6.414;2023-04-03T09:12:06;8.10;99.90
3053;DHT22;1536;51.098;6.414;2023-04-03T09:14:43;8.20;99.90
3053;DHT22;1536;51.098;6.414;2023-04-03T09:17:15;8.30;99.90
3053;DHT22;1536;51.098;6.414;2023-04-03T09:19:50;8.40;99.90
3053;DHT22;1536;51.098;6.414;2023-04-03T09:22:24;8.60;99.90
3053;DHT22;1536;51.098;6.414;2023-04-03T09:24:56;8.60;99.90
3053;DHT22;1536;51.098;6.414;2023-04-03T09:27:23;8.70;99.90
3053;DHT22;1536;51.098;6.414;2023-04-03T09:29:53;8.70;99.90
3053;DHT22;1536;51.098;6.414;2023-04-03T09:32:25;8.80;98.10
3053;DHT22;1536;51.098;6.414;2023-04-03T09:34:52;8.90;99.30
3053;DHT22;1536;51.098;6.414;2023-04-03T09:37:40;8.90;99.00
3053;DHT22;1536;51.098;6.414;2023-04-03T09:40:32;9.00;98.80
3053;DHT22;1536;51.098;6.414;2023-04-03T09:43:02;9.00;97.80
3053;DHT22;1536;51.098;6.414;2023-04-03T09:45:32;9.10;97.30
3053;DHT22;1536;51.098;6.414;2023-04-03T09:48:15;9.10;98.00
3053;DHT22;1536;51.098;6.414;2023-04-03T09:50:54;9.10;96.50
3053;DHT22;1536;51.098;6.414;2023-04-03T09:53:33;9.20;96.60
3053;DHT22;1536;51.098;6.414;2023-04-03T09:56:04;9.20;94.90
3053;DHT22;1536;51.098;6.414;2023-04-03T09:58:33;9.30;95.20
3053;DHT22;1536;51.098;6.414;2023-04-03T10:01:05;9.30;95.70
3053;DHT22;1536;51.098;6.414;2023-04-03T10:03:33;9.30;94.60
3053;DHT22;1536;51.098;6.414;2023-04-03T10:06:02;9.40;95.20
3053;DHT22;1536;51.098;6.414;2023-04-03T10:08:31;9.40;95.20
3053;DHT22;1536;51.098;6.414;2023-04-03T10:11:17;9.50;96.50
3053;DHT22;1536;51.098;6.414;2023-04-03T10:13:52;9.50;95.80
3053;DHT22;1536;51.098;6.414;2023-04-03T10:16:25;9.50;94.50
3053;DHT22;1536;51.098;6.414;2023-04-03T10:19:01;9.50;93.60
3053;DHT22;1536;51.098;6.414;2023-04-03T10:21:35;9.50;93.70
3053;DHT22;1536;51.098;6.414;2023-04-03T10:24:10;9.40;92.70
3053;DHT22;1536;51.098;6.414;2023-04-03T10:26:44;9.50;93.50
3053;DHT22;1536;51.098;6.414;2023-04-03T10:29:21;9.50;93.70
3053;DHT22;1536;51.098;6.414;2023-04-03T10:31:57;9.50;94.40
3053;DHT22;1536;51.098;6.414;2023-04-03T10:34:29;9.60;93.40
3053;DHT22;1536;51.098;6.414;2023-04-03T10:37:04;9.60;93.70
3053;DHT22;1536;51.098;6.414;2023-04-03T10:39:39;9.60;94.10
3053;DHT22;1536;51.098;6.414;2023-04-03T10:42:14;9.60;93.10
3053;DHT22;1536;51.098;6.414;2023-04-03T10:44:59;9.60;93.00
3053;DHT22;1536;51.098;6.414;2023-04-03T10:47:34;9.60;93.30
3053;DHT22;1536;51.098;6.414;2023-04-03T10:50:13;9.70;95.30
3053;DHT22;1536;51.098;6.414;2023-04-03T10:52:50;9.70;93.80
3053;DHT22;1536;51.098;6.414;2023-04-03T10:55:27;9.70;94.30
3053;DHT22;1536;51.098;6.414;2023-04-03T10:57:58;9.80;94.50
3053;DHT22;1536;51.098;6.414;2023-04-03T11:00:33;9.80;94.40
3053;DHT22;1536;51.098;6.414;2023-04-03T11:03:08;9.80;94.30
3053;DHT22;1536;51.098;6.414;2023-04-03T11:05:39;9.90;95.40
3053;DHT22;1536;51.098;6.414;2023-04-03T11:08:12;9.90;92.90
3053;DHT22;1536;51.098;6.414;2023-04-03T11:10:42;9.90;92.90
3053;DHT22;1536;51.098;6.414;2023-04-03T11:13:13;9.90;93.30
3053;DHT22;1536;51.098;6.414;2023-04-03T11:15:41;9.90;93.10
3053;DHT22;1536;51.098;6.414;2023-04-03T11:18:13;9.90;93.60
3053;DHT22;1536;51.098;6.414;2023-04-03T11:20:42;9.90;93.20
3053;DHT22;1536;51.098;6.414;2023-04-03T11:23:17;10.00;89.10
3053;DHT22;1536;51.098;6.414;2023-04-03T11:25:50;9.90;91.90
3053;DHT22;1536;51.098;6.414;2023-04-03T11:28:17;9.90;92.00
3053;DHT22;1536;51.098;6.414;2023-04-03T11:30:47;9.90;92.50
3053;DHT22;1536;51.098;6.414;2023-04-03T11:33:31;10.00;92.20
3053;DHT22;1536;51.098;6.414;2023-04-03T11:36:03;10.00;90.80
3053;DHT22;1536;51.098;6.414;2023-04-03T11:38:35;10.00;92.50
3053;DHT22;1536;51.098;6.414;2023-04-03T11:41:07;10.10;93.00
3053;DHT22;1536;51.098;6.414;2023-04-03T11:43:40;10.10;92.90
3053;DHT22;1536;51.098;6.414;2023-04-03T11:46:08;10.10;94.20
3053;DHT22;1536;51.098;6.414;2023-04-03T11:48:49;10.20;92.70
3053;DHT22;1536;51.098;6.414;2023-04-03T11:51:42;10.10;91.40
3053;DHT22;1536;51.098;6.414;2023-04-03T11:54:49;10.20;92.20
3053;DHT22;1536;51.098;6.414;2023-04-03T12:00:57;10.20;92.40
3053;DHT22;1536;51.098;6.414;2023-04-03T12:12:25;10.30;91.70
3053;DHT22;1536;51.098;6.414;2023-04-03T12:14:53;10.30;92.60
3053;DHT22;1536;51.098;6.414;2023-04-03T12:17:23;10.30;90.80
3053;DHT22;1536;51.098;6.414;2023-04-03T12:19:51;10.40;90.50
3053;DHT22;1536;51.098;6.414;2023-04-03T12:22:19;10.40;90.50
3053;DHT22;1536;51.098;6.414;2023-04-03T12:24:50;10.40;89.40
3053;DHT22;1536;51.098;6.414;2023-04-03T12:27:26;10.30;87.80
3053;DHT22;1536;51.098;6.414;2023-04-03T12:29:58;10.40;91.10
3053;DHT22;1536;51.098;6.414;2023-04-03T12:32:37;10.50;91.30
3053;DHT22;1536;51.098;6.414;2023-04-03T12:35:18;10.50;92.80
3053;DHT22;1536;51.098;6.414;2023-04-03T12:40:43;10.60;92.20
3053;DHT22;1536;51.098;6.414;2023-04-03T12:43:24;10.60;91.20
3053;DHT22;1536;51.098;6.414;2023-04-03T12:45:58;10.60;90.10
3053;DHT22;1536;51.098;6.414;2023-04-03T12:48:28;10.60;89.30
3053;DHT22;1536;51.098;6.414;2023-04-03T12:50:56;10.60;90.30
3053;DHT22;1536;51.098;6.414;2023-04-03T12:53:25;10.70;90.30
3053;DHT22;1536;51.098;6.414;2023-04-03T12:55:55;10.70;93.00
3053;DHT22;1536;51.098;6.414;2023-04-03T12:58:24;10.70;90.70
3053;DHT22;1536;51.098;6.414;2023-04-03T13:01:03;10.70;90.20
3053;DHT22;1536;51.098;6.414;2023-04-03T13:03:31;10.80;89.30
3053;DHT22;1536;51.098;6.414;2023-04-03T13:06:00;10.80;86.80
3053;DHT22;1536;51.098;6.414;2023-04-03T13:08:29;10.80;88.90
3053;DHT22;1536;51.098;6.414;2023-04-03T13:11:02;10.90;90.00
3053;DHT22;1536;51.098;6.414;2023-04-03T13:13:30;10.90;88.60
3053;DHT22;1536;51.098;6.414;2023-04-03T13:15:57;10.90;90.10
3053;DHT22;1536;51.098;6.414;2023-04-03T13:18:30;11.00;89.90
3053;DHT22;1536;51.098;6.414;2023-04-03T13:21:01;11.10;86.50
3053;DHT22;1536;51.098;6.414;2023-04-03T13:23:29;11.10;85.10
3053;DHT22;1536;51.098;6.414;2023-04-03T13:25:58;11.10;85.10
3053;DHT22;1536;51.098;6.414;2023-04-03T13:28:29;11.10;82.60
3053;DHT22;1536;51.098;6.414;2023-04-03T13:31:00;11.20;84.70
3053;DHT22;1536;51.098;6.414;2023-04-03T13:33:30;11.20;85.50
3053;DHT22;1536;51.098;6.414;2023-04-03T13:36:17;11.20;84.70
3053;DHT22;1536;51.098;6.414;2023-04-03T13:38:44;11.30;84.90
3053;DHT22;1536;51.098;6.414;2023-04-03T13:41:29;11.30;84.70
3053;DHT22;1536;51.098;6.414;2023-04-03T13:43:56;11.30;85.10
3053;DHT22;1536;51.098;6.414;2023-04-03T13:46:25;11.40;88.50
3053;DHT22;1536;51.098;6.414;2023-04-03T13:48:55;11.40;82.10
3053;DHT22;1536;51.098;6.414;2023-04-03T13:51:24;11.40;84.40
3053;DHT22;1536;51.098;6.414;2023-04-03T13:53:54;11.40;77.70
3053;DHT22;1536;51.098;6.414;2023-04-03T13:56:30;11.40;83.00
3053;DHT22;1536;51.098;6.414;2023-04-03T13:59:05;11.50;83.40
3053;DHT22;1536;51.098;6.414;2023-04-03T14:01:41;11.50;85.50
3053;DHT22;1536;51.098;6.414;2023-04-03T14:04:13;11.50;83.60
3053;DHT22;1536;51.098;6.414;2023-04-03T14:06:40;11.50;78.50
3053;DHT22;1536;51.098;6.414;2023-04-03T14:09:07;11.50;77.50
3053;DHT22;1536;51.098;6.414;2023-04-03T14:11:35;11.50;77.80
3053;DHT22;1536;51.098;6.414;2023-04-03T14:14:09;11.50;78.20
3053;DHT22;1536;51.098;6.414;2023-04-03T14:16:38;11.50;75.00
3053;DHT22;1536;51.098;6.414;2023-04-03T14:19:07;11.50;74.50
3053;DHT22;1536;51.098;6.414;2023-04-03T14:21:37;11.60;75.10
3053;DHT22;1536;51.098;6.414;2023-04-03T14:24:04;11.60;73.00
3053;DHT22;1536;51.098;6.414;2023-04-03T14:26:31;11.60;75.40
3053;DHT22;1536;51.098;6.414;2023-04-03T14:28:59;11.60;73.00
3053;DHT22;1536;51.098;6.414;2023-04-03T14:31:26;11.70;77.00
3053;DHT22;1536;51.098;6.414;2023-04-03T14:33:52;11.70;78.80
3053;DHT22;1536;51.098;6.414;2023-04-03T14:36:21;11.80;78.90
3053;DHT22;1536;51.098;6.414;2023-04-03T14:38:50;11.90;77.80
3053;DHT22;1536;51.098;6.414;2023-04-03T14:41:18;12.00;74.90
3053;DHT22;1536;51.098;6.414;2023-04-03T14:43:46;11.90;74.00
3053;DHT22;1536;51.098;6.414;2023-04-03T14:46:16;12.00;77.50
3053;DHT22;1536;51.098;6.414;2023-04-03T14:48:44;12.00;75.30
3053;DHT22;1536;51.098;6.414;2023-04-03T14:51:12;12.00;76.10
3053;DHT22;1536;51.098;6.414;2023-04-03T14:53:39;12.10;76.80
3053;DHT22;1536;51.098;6.414;2023-04-03T14:56:12;12.10;73.90
3053;DHT22;1536;51.098;6.414;2023-04-03T14:58:39;12.00;73.00
3053;DHT22;1536;51.098;6.414;2023-04-03T15:01:06;12.10;76.40
3053;DHT22;1536;51.098;6.414;2023-04-03T15:03:34;12.20;76.10
3053;DHT22;1536;51.098;6.414;2023-04-03T15:06:00;12.20;73.70
3053;DHT22;1536;51.098;6.414;2023-04-03T15:08:27;12.20;78.20
3053;DHT22;1536;51.098;6.414;2023-04-03T15:10:56;12.30;77.20
3053;DHT22;1536;51.098;6.414;2023-04-03T15:13:23;12.30;71.40
3053;DHT22;1536;51.098;6.414;2023-04-03T15:15:51;12.20;70.30
3053;DHT22;1536;51.098;6.414;2023-04-03T15:18:21;12.20;74.20
3053;DHT22;1536;51.098;6.414;2023-04-03T15:20:50;12.20;75.70
3053;DHT22;1536;51.098;6.414;2023-04-03T15:23:17;12.20;73.30
3053;DHT22;1536;51.098;6.414;2023-04-03T15:25:45;12.20;75.60
3053;DHT22;1536;51.098;6.414;2023-04-03T15:28:18;12.20;74.50
3053;DHT22;1536;51.098;6.414;2023-04-03T15:30:45;12.30;77.40
3053;DHT22;1536;51.098;6.414;2023-04-03T15:33:12;12.30;77.30
3053;DHT22;1536;51.098;6.414;2023-04-03T15:35:41;12.30;77.40
3053;DHT22;1536;51.098;6.414;2023-04-03T15:38:09;12.30;74.80
3053;DHT22;1536;51.098;6.414;2023-04-03T15:40:36;12.30;76.30
3053;DHT22;1536;51.098;6.414;2023-04-03T15:43:03;12.30;76.10
3053;DHT22;1536;51.098;6.414;2023-04-03T15:45:31;12.30;75.40
3053;DHT22;1536;51.098;6.414;2023-04-03T15:47:58;12.30;76.50
3053;DHT22;1536;51.098;6.414;2023-04-03T15:50:25;12.20;73.90
3053;DHT22;1536;51.098;6.414;2023-04-03T15:52:52;12.20;74.50
3053;DHT22;1536;51.098;6.414;2023-04-03T15:55:22;12.10;75.90
3053;DHT22;1536;51.098;6.414;2023-04-03T15:57:49;12.00;72.40
3053;DHT22;1536;51.098;6.414;2023-04-03T16:00:20;11.90;73.70
3053;DHT22;1536;51.098;6.414;2023-04-03T16:02:48;11.90;73.80
3053;DHT22;1536;51.098;6.414;2023-04-03T16:05:18;11.70;76.70
3053;DHT22;1536;51.098;6.414;2023-04-03T16:07:45;11.70;78.20
3053;DHT22;1536;51.098;6.414;2023-04-03T16:10:14;11.60;78.20
3053;DHT22;1536;51.098;6.414;2023-04-03T16:12:43;11.60;78.90
3053;DHT22;1536;51.098;6.414;2023-04-03T16:15:10;11.40;79.30
3053;DHT22;1536;51.098;6.414;2023-04-03T16:17:38;11.30;79.50
3053;DHT22;1536;51.098;6.414;2023-04-03T16:20:08;11.20;77.80
3053;DHT22;1536;51.098;6.414;2023-04-03T16:22:35;11.20;79.30
3053;DHT22;1536;51.098;6.414;2023-04-03T16:25:02;11.00;79.30
3053;DHT22;1536;51.098;6.414;2023-04-03T16:27:29;11.00;80.10
3053;DHT22;1536;51.098;6.414;2023-04-03T16:29:57;10.90;79.40
3053;DHT22;1536;51.098;6.414;2023-04-03T16:32:27;10.90;80.30
3053;DHT22;1536;51.098;6.414;2023-04-03T16:34:56;10.80;79.40
3053;DHT22;1536;51.098;6.414;2023-04-03T16:37:22;10.70;78.40
3053;DHT22;1536;51.098;6.414;2023-04-03T16:39:49;10.70;81.00
3053;DHT22;1536;51.098;6.414;2023-04-03T16:42:16;10.70;82.60